createdAt,value
2019-04-11T00:03:06.593Z,95425.10
2019-04-11T00:05:32.815Z,95423.38
2019-04-11T00:07:59.727Z,95421.64
2019-04-11T00:10:26.490Z,95416.28
2019-04-11T00:12:52.722Z,95425.31
2019-04-11T00:15:18.769Z,95421.27
2019-04-11T00:17:46.002Z,95422.27
2019-04-11T00:20:12.350Z,95419.34
2019-04-11T00:22:38.543Z,95419.75
2019-04-11T00:25:04.839Z,95417.90
2019-04-11T00:27:30.887Z,95417.61
2019-04-11T00:29:57.029Z,95411.30
2019-04-11T00:32:23.302Z,95417.51
2019-04-11T00:34:49.516Z,95414.97
2019-04-11T00:37:16.890Z,95406.77
2019-04-11T00:39:43.742Z,95402.20
2019-04-11T00:42:10.331Z,95407.05
2019-04-11T00:44:36.560Z,95420.53
2019-04-11T00:47:02.714Z,95414.16
2019-04-11T00:49:28.865Z,95414.98
2019-04-11T00:51:56.134Z,95420.05
2019-04-11T00:54:22.675Z,95417.70
2019-04-11T00:56:48.956Z,95426.25
2019-04-11T00:59:15.984Z,95429.80
2019-04-11T01:01:43.006Z,95429.51
2019-04-11T01:04:09.676Z,95436.49
2019-04-11T01:06:36.523Z,95430.44
2019-04-11T01:09:04.845Z,95427.37
2019-04-11T01:11:32.022Z,95433.58
2019-04-11T01:13:59.406Z,95433.17
2019-04-11T01:19:07.240Z,95436.00
2019-04-11T01:21:34.815Z,95434.89
2019-04-11T01:24:01.718Z,95435.30
2019-04-11T01:26:28.269Z,95431.64
2019-04-11T01:28:55.383Z,95435.51
2019-04-11T01:31:23.495Z,95426.08
2019-04-11T01:33:49.739Z,95432.16
2019-04-11T01:36:15.848Z,95423.23
2019-04-11T01:41:29.001Z,95433.48
2019-04-11T01:44:00.956Z,95428.91
2019-04-11T01:46:24.320Z,95419.06
2019-04-11T01:48:55.686Z,95423.62
2019-04-11T01:51:21.805Z,95418.06
2019-04-11T01:53:48.893Z,95420.91
2019-04-11T01:56:15.150Z,95421.71
2019-04-11T01:58:41.288Z,95421.30
2019-04-11T02:01:09.401Z,95416.84
2019-04-11T02:03:49.746Z,95425.78
2019-04-11T02:06:16.432Z,95435.19
2019-04-11T02:08:43.775Z,95432.46
2019-04-11T02:11:10.117Z,95426.48
2019-04-11T02:13:36.359Z,95442.19
2019-04-11T02:16:02.978Z,95437.81
2019-04-11T02:18:29.728Z,95442.67
2019-04-11T02:20:55.913Z,95447.09
2019-04-11T02:28:55.420Z,95456.62
2019-04-11T02:31:22.928Z,95456.62
2019-04-11T02:33:51.079Z,95460.68
2019-04-11T02:36:18.791Z,95455.57
2019-04-11T02:38:48.952Z,95455.09
2019-04-11T02:41:14.208Z,95467.05
2019-04-11T02:43:42.772Z,95472.25
2019-04-11T02:46:17.239Z,95472.14
2019-04-11T02:48:37.658Z,95475.08
2019-04-11T02:51:05.706Z,95472.58
2019-04-11T02:53:34.164Z,95472.16
2019-04-11T02:56:01.137Z,95473.23
2019-04-11T02:58:30.273Z,95479.27
2019-04-11T03:00:59.393Z,95470.45
2019-04-11T03:03:25.286Z,95481.66
2019-04-11T03:05:53.287Z,95485.69
2019-04-11T03:08:21.978Z,95477.75
2019-04-11T03:10:49.224Z,95475.45
2019-04-11T03:13:16.850Z,95473.08
2019-04-11T03:16:00.471Z,95473.99
2019-04-11T03:18:18.547Z,95481.88
2019-04-11T03:20:47.783Z,95483.48
2019-04-11T03:23:10.137Z,95488.20
2019-04-11T03:25:36.386Z,95484.91
2019-04-11T03:28:02.904Z,95481.16
2019-04-11T03:30:51.781Z,95479.39
2019-04-11T03:38:21.218Z,95486.67
2019-04-11T03:40:36.165Z,95477.49
2019-04-11T03:43:01.359Z,95483.05
2019-04-11T03:45:36.407Z,95486.05
2019-04-11T03:48:03.737Z,95496.95
2019-04-11T03:50:18.817Z,95494.91
2019-04-11T03:52:43.020Z,95494.81
2019-04-11T03:55:11.075Z,95487.88
2019-04-11T03:57:39.392Z,95497.26
2019-04-11T04:00:06.555Z,95494.43
2019-04-11T04:02:34.691Z,95498.67
2019-04-11T04:05:01.552Z,95498.91
2019-04-11T04:07:29.572Z,95497.48
2019-04-11T04:09:56.234Z,95501.80
2019-04-11T04:12:22.721Z,95502.41
2019-04-11T04:17:36.175Z,95513.17
2019-04-11T04:20:12.899Z,95528.16
2019-04-11T04:22:42.081Z,95524.45
2019-04-11T04:25:10.316Z,95529.61
2019-04-11T04:27:36.591Z,95531.36
2019-04-11T04:30:05.905Z,95529.27
2019-04-11T04:32:32.975Z,95539.73
2019-04-11T04:35:01.111Z,95545.11
2019-04-11T04:37:29.449Z,95545.22
2019-04-11T04:40:16.304Z,95549.17
2019-04-11T04:42:31.466Z,95544.72
2019-04-11T04:44:53.701Z,95545.69
2019-04-11T04:47:25.085Z,95550.58
2019-04-11T04:49:48.677Z,95548.00
2019-04-11T04:52:16.302Z,95546.25
2019-04-11T04:54:44.322Z,95552.14
2019-04-11T04:57:13.010Z,95544.55
2019-04-11T04:59:40.652Z,95545.56
2019-04-11T05:02:08.196Z,95555.75
2019-04-11T05:04:36.058Z,95551.41
2019-04-11T05:07:03.265Z,95552.96
2019-04-11T05:09:29.863Z,95553.84
2019-04-11T05:11:56.115Z,95546.48
2019-04-11T05:14:23.337Z,95550.70
2019-04-11T05:16:50.475Z,95546.60
2019-04-11T05:19:17.017Z,95548.63
2019-04-11T05:21:43.637Z,95546.75
2019-04-11T05:24:10.343Z,95545.85
2019-04-11T05:26:36.878Z,95554.33
2019-04-11T05:29:03.047Z,95552.41
2019-04-11T05:31:30.115Z,95557.56
2019-04-11T05:33:56.514Z,95560.03
2019-04-11T05:36:22.793Z,95561.98
2019-04-11T05:38:48.965Z,95552.11
2019-04-11T05:41:15.384Z,95562.47
2019-04-11T05:43:41.856Z,95563.11
2019-04-11T05:46:23.998Z,95563.63
2019-04-11T05:48:47.232Z,95562.88
2019-04-11T05:51:13.428Z,95575.59
2019-04-11T05:53:39.658Z,95562.77
2019-04-11T05:56:07.103Z,95569.33
2019-04-11T05:58:34.908Z,95570.75
2019-04-11T06:01:05.578Z,95567.80
2019-04-11T06:03:32.353Z,95570.75
2019-04-11T06:06:18.472Z,95570.22
2019-04-11T06:08:44.680Z,95567.19
2019-04-11T06:11:16.482Z,95567.39
2019-04-11T06:16:36.072Z,95570.69
2019-04-11T06:18:54.366Z,95572.29
2019-04-11T06:24:20.224Z,95582.05
2019-04-11T06:32:40.926Z,95582.52
2019-04-11T06:40:46.087Z,95576.68
2019-04-11T06:43:14.190Z,95568.27
2019-04-11T06:45:46.129Z,95571.16
2019-04-11T06:48:17.829Z,95561.34
2019-04-11T06:53:38.465Z,95571.44
2019-04-11T06:56:18.950Z,95568.75
2019-04-11T06:58:54.118Z,95559.89
2019-04-11T07:01:23.221Z,95563.02
2019-04-11T07:03:51.261Z,95571.53
2019-04-11T07:06:19.586Z,95570.59
2019-04-11T07:11:40.670Z,95589.37
2019-04-11T07:17:15.478Z,95585.43
2019-04-11T07:19:46.558Z,95584.96
2019-04-11T07:22:32.671Z,95590.31
2019-04-11T07:25:18.121Z,95599.89
2019-04-11T07:28:03.698Z,95596.42
2019-04-11T07:30:49.494Z,95592.42
2019-04-11T07:36:34.057Z,95599.10
2019-04-11T07:39:20.214Z,95601.72
2019-04-11T07:41:52.091Z,95600.41
2019-04-11T07:44:20.406Z,95602.37
2019-04-11T07:47:13.609Z,95598.86
2019-04-11T07:49:47.252Z,95601.58
2019-04-11T07:52:17.855Z,95618.66
2019-04-11T07:54:43.891Z,95619.30
2019-04-11T07:57:12.926Z,95633.17
2019-04-11T08:08:41.212Z,95626.89
2019-04-11T08:11:09.583Z,95627.33
2019-04-11T08:16:31.400Z,95633.80
2019-04-11T08:19:03.620Z,95636.33
2019-04-11T08:21:48.601Z,95632.53
2019-04-11T08:24:22.518Z,95631.25
2019-04-11T08:29:30.549Z,95630.47
2019-04-11T08:32:04.683Z,95630.06
2019-04-11T08:34:32.705Z,95634.34
2019-04-11T08:37:17.262Z,95632.23
2019-04-11T08:39:43.389Z,95634.88
2019-04-11T08:42:21.334Z,95636.73
2019-04-11T08:44:48.046Z,95640.23
2019-04-11T08:47:14.241Z,95636.91
2019-04-11T08:49:42.176Z,95640.39
2019-04-11T08:52:10.246Z,95636.38
2019-04-11T08:54:55.698Z,95633.67
2019-04-11T08:57:29.745Z,95641.18
2019-04-11T09:00:02.098Z,95634.02
2019-04-11T09:02:31.057Z,95634.30
2019-04-11T09:05:07.050Z,95631.98
2019-04-11T09:07:29.655Z,95639.00
2019-04-11T09:12:44.809Z,95629.55
2019-04-11T09:15:29.686Z,95638.98
2019-04-11T09:18:04.207Z,95630.80
2019-04-11T09:20:29.829Z,95619.20
2019-04-11T09:22:57.829Z,95621.77
2019-04-11T09:25:43.493Z,95632.39
2019-04-11T09:28:15.380Z,95623.02
2019-04-11T09:31:01.063Z,95624.52
2019-04-11T09:33:47.050Z,95629.46
2019-04-11T09:39:28.864Z,95628.36
2019-04-11T09:42:11.906Z,95628.50
2019-04-11T09:44:49.157Z,95625.97
2019-04-11T09:47:34.128Z,95623.03
2019-04-11T09:50:18.878Z,95632.16
2019-04-11T09:52:50.000Z,95626.65
2019-04-11T09:55:34.555Z,95631.80
2019-04-11T09:58:01.684Z,95636.14
2019-04-11T10:00:47.437Z,95629.02
2019-04-11T10:03:21.366Z,95634.31
2019-04-11T10:05:50.281Z,95634.09
2019-04-11T10:08:28.166Z,95626.95
2019-04-11T10:13:59.455Z,95641.40
2019-04-11T10:16:28.372Z,95639.49
2019-04-11T10:18:57.694Z,95656.48
2019-04-11T10:21:25.930Z,95629.95
2019-04-11T10:24:11.718Z,95636.25
2019-04-11T10:26:44.442Z,95636.52
2019-04-11T10:29:30.427Z,95632.77
2019-04-11T10:31:57.439Z,95629.92
2019-04-11T10:37:20.746Z,95638.59
2019-04-11T10:39:51.786Z,95639.94
2019-04-11T10:42:18.158Z,95636.30
2019-04-11T10:45:02.829Z,95642.53
2019-04-11T10:50:15.370Z,95644.15
2019-04-11T10:52:44.605Z,95648.98
2019-04-11T10:55:15.663Z,95653.58
2019-04-11T10:57:46.680Z,95657.89
2019-04-11T11:00:15.670Z,95653.25
2019-04-11T11:03:00.559Z,95654.44
2019-04-11T11:05:28.602Z,95661.31
2019-04-11T11:07:57.171Z,95657.25
2019-04-11T11:10:25.779Z,95662.05
2019-04-11T11:12:54.004Z,95659.55
2019-04-11T11:15:23.292Z,95661.78
2019-04-11T11:18:27.172Z,95667.60
2019-04-11T11:20:38.585Z,95666.17
2019-04-11T11:23:07.741Z,95661.41
2019-04-11T11:25:33.034Z,95668.52
2019-04-11T11:28:00.233Z,95665.33
2019-04-11T11:30:37.840Z,95685.49
2019-04-11T11:33:05.602Z,95684.22
2019-04-11T11:38:26.639Z,95681.67
2019-04-11T11:41:03.902Z,95683.91
2019-04-11T11:43:32.863Z,95691.23
2019-04-11T11:46:19.366Z,95689.73
2019-04-11T11:51:33.801Z,95691.45
2019-04-11T11:54:11.500Z,95686.93
2019-04-11T11:56:40.235Z,95685.92
2019-04-11T11:59:25.175Z,95687.48
2019-04-11T12:04:50.208Z,95691.32
2019-04-11T12:10:17.896Z,95689.32
2019-04-11T12:12:46.405Z,95682.64
2019-04-11T12:15:22.456Z,95689.09
2019-04-11T12:20:49.341Z,95688.05
2019-04-11T12:23:46.450Z,95684.91
2019-04-11T12:26:05.326Z,95687.90
2019-04-11T12:31:32.056Z,95689.00
2019-04-11T12:34:16.555Z,95687.60
2019-04-11T12:36:50.133Z,95685.92
2019-04-11T12:39:24.546Z,95693.06
2019-04-11T12:41:59.495Z,95683.45
2019-04-11T12:47:19.517Z,95697.03
2019-04-11T12:49:52.715Z,95692.33
2019-04-11T12:52:20.437Z,95691.45
2019-04-11T12:54:54.467Z,95691.02
2019-04-11T12:57:39.142Z,95687.66
2019-04-11T13:00:16.157Z,95691.27
2019-04-11T13:03:00.547Z,95695.53
2019-04-11T13:05:53.817Z,95693.38
2019-04-11T13:08:33.918Z,95693.52
2019-04-11T13:11:06.329Z,95700.50
2019-04-11T13:13:34.405Z,95703.13
2019-04-11T13:16:12.072Z,95702.20
2019-04-11T13:18:50.540Z,95706.63
2019-04-11T13:21:18.626Z,95711.50
2019-04-11T13:26:53.681Z,95721.52
2019-04-11T13:29:21.606Z,95714.60
2019-04-11T13:31:52.651Z,95716.86
2019-04-11T13:34:19.780Z,95720.80
2019-04-11T13:36:50.405Z,95729.11
2019-04-11T13:39:16.667Z,95718.33
2019-04-11T13:41:44.679Z,95718.31
2019-04-11T13:44:12.730Z,95728.09
2019-04-11T13:46:57.122Z,95717.77
2019-04-11T13:49:34.477Z,95721.31
2019-04-11T13:52:05.755Z,95722.67
2019-04-11T13:54:45.648Z,95727.85
2019-04-11T14:00:30.771Z,95726.03
2019-04-11T14:03:02.141Z,95725.22
2019-04-11T14:05:30.175Z,95725.39
2019-04-11T14:07:57.919Z,95728.18
2019-04-11T14:10:24.045Z,95730.75
2019-04-11T14:12:52.098Z,95730.39
2019-04-11T14:15:22.381Z,95730.21
2019-04-11T14:17:53.230Z,95727.05
2019-04-11T14:23:23.528Z,95737.31
2019-04-11T14:28:56.962Z,95724.52
2019-04-11T14:31:36.988Z,95720.89
2019-04-11T14:37:00.625Z,95726.91
2019-04-11T14:39:28.697Z,95723.75
2019-04-11T14:42:05.488Z,95722.90
2019-04-11T14:44:33.602Z,95724.80
2019-04-11T14:47:01.668Z,95722.02
2019-04-11T14:49:28.307Z,95728.56
2019-04-11T14:52:16.914Z,95724.91
2019-04-11T14:54:43.104Z,95723.76
2019-04-11T14:57:11.044Z,95728.48
2019-04-11T14:59:39.106Z,95726.51
2019-04-11T15:02:19.060Z,95731.09
2019-04-11T15:04:58.812Z,95726.48
2019-04-11T15:07:24.985Z,95730.61
2019-04-11T15:10:01.881Z,95732.60
2019-04-11T15:12:32.483Z,95730.98
2019-04-11T15:15:12.509Z,95736.05
2019-04-11T15:17:40.548Z,95737.34
2019-04-11T15:20:15.553Z,95733.41
2019-04-11T15:22:46.550Z,95723.66
2019-04-11T15:25:14.576Z,95739.47
2019-04-11T15:30:32.079Z,95739.08
2019-04-11T15:33:05.788Z,95737.42
2019-04-11T15:35:31.853Z,95732.82
2019-04-11T15:40:45.437Z,95744.07
2019-04-11T15:43:28.635Z,95743.42
2019-04-11T15:46:01.285Z,95735.57
2019-04-11T15:51:19.531Z,95730.86
2019-04-11T15:53:47.573Z,95740.69
2019-04-11T15:56:32.537Z,95738.38
2019-04-11T15:59:00.599Z,95749.52
2019-04-11T16:01:47.144Z,95749.23
2019-04-11T16:04:17.573Z,95751.72
2019-04-11T16:07:02.201Z,95743.02
2019-04-11T16:09:28.218Z,95751.67
2019-04-11T16:11:58.917Z,95750.06
2019-04-11T16:14:24.926Z,95753.22
2019-04-11T16:16:53.029Z,95749.28
2019-04-11T16:19:36.209Z,95756.66
2019-04-11T16:22:10.232Z,95757.63
2019-04-11T16:24:41.094Z,95756.54
2019-04-11T16:27:25.709Z,95761.95
2019-04-11T16:29:53.688Z,95759.82
2019-04-11T16:32:19.812Z,95763.10
2019-04-11T16:34:54.371Z,95767.38
2019-04-11T16:37:19.389Z,95767.05
2019-04-11T16:40:05.665Z,95767.56
2019-04-11T16:42:33.714Z,95766.43
2019-04-11T16:45:01.769Z,95767.09
2019-04-11T16:47:48.006Z,95762.50
2019-04-11T16:50:14.166Z,95758.88
2019-04-11T16:52:40.303Z,95764.77
2019-04-11T16:55:09.799Z,95762.80
2019-04-11T16:57:34.567Z,95768.05
2019-04-11T17:00:00.694Z,95774.95
2019-04-11T17:02:28.960Z,95778.22
2019-04-11T17:04:55.894Z,95778.22
2019-04-11T17:07:26.143Z,95783.77
2019-04-11T17:09:57.493Z,95780.48
2019-04-11T17:12:26.307Z,95785.06
2019-04-11T17:14:51.780Z,95793.25
2019-04-11T17:17:17.936Z,95792.63
2019-04-11T17:19:44.057Z,95792.11
2019-04-11T17:22:10.081Z,95790.98
2019-04-11T17:24:36.226Z,95794.91
2019-04-11T17:27:02.357Z,95790.16
2019-04-11T17:29:28.381Z,95798.53
2019-04-11T17:31:56.135Z,95800.81
2019-04-11T17:34:22.571Z,95802.63
2019-04-11T17:36:48.820Z,95799.19
2019-04-11T17:39:15.049Z,95805.09
2019-04-11T17:41:42.034Z,95803.13
2019-04-11T17:44:08.736Z,95817.40
2019-04-11T17:46:34.871Z,95822.16
2019-04-11T17:49:00.995Z,95823.61
2019-04-11T17:51:27.179Z,95824.61
2019-04-11T17:53:55.497Z,95821.50
2019-04-11T17:56:24.656Z,95835.56
2019-04-11T17:58:49.306Z,95843.12
2019-04-11T18:01:15.581Z,95840.81
2019-04-11T18:03:42.610Z,95838.67
2019-04-11T18:06:08.960Z,95838.70
2019-04-11T18:08:35.096Z,95843.12
2019-04-11T18:11:01.230Z,95852.95
2019-04-11T18:13:30.622Z,95851.63
2019-04-11T18:15:55.398Z,95855.88
2019-04-11T18:18:21.457Z,95855.73
2019-04-11T18:20:47.511Z,95857.19
2019-04-11T18:23:13.629Z,95859.18
2019-04-11T18:25:39.784Z,95862.42
2019-04-11T18:28:05.843Z,95862.28
2019-04-11T18:30:31.870Z,95867.70
2019-04-11T18:32:58.004Z,95871.31
2019-04-11T18:35:24.056Z,95877.37
2019-04-11T18:37:50.220Z,95877.88
2019-04-11T18:40:16.674Z,95872.16
2019-04-11T18:42:42.954Z,95872.47
2019-04-11T18:45:09.168Z,95872.81
2019-04-11T18:47:35.338Z,95875.92
2019-04-11T18:50:02.057Z,95876.57
2019-04-11T18:52:29.126Z,95880.83
2019-04-11T18:54:55.332Z,95872.03
2019-04-11T18:57:21.455Z,95874.95
2019-04-11T18:59:47.573Z,95880.70
2019-04-11T19:02:13.694Z,95885.92
2019-04-11T19:04:42.150Z,95877.25
2019-04-11T19:07:08.099Z,95878.70
2019-04-11T19:09:34.437Z,95876.61
2019-04-11T19:12:00.797Z,95878.06
2019-04-11T19:14:26.926Z,95868.73
2019-04-11T19:16:53.160Z,95882.80
2019-04-11T19:19:19.399Z,95872.02
2019-04-11T19:21:45.948Z,95880.19
2019-04-11T19:24:13.016Z,95879.87
2019-04-11T19:26:39.299Z,95873.34
2019-04-11T19:29:06.289Z,95872.34
2019-04-11T19:31:32.570Z,95881.19
2019-04-11T19:33:58.719Z,95872.83
2019-04-11T19:36:24.851Z,95875.30
2019-04-11T19:38:50.973Z,95875.44
2019-04-11T19:41:18.225Z,95873.98
2019-04-11T19:43:44.444Z,95871.69
2019-04-11T19:46:10.584Z,95872.34
2019-04-11T19:48:36.699Z,95868.26
2019-04-11T19:51:02.824Z,95868.08
2019-04-11T19:53:32.759Z,95868.06
2019-04-11T19:55:58.812Z,95869.34
2019-04-11T19:58:26.857Z,95860.84
2019-04-11T20:00:53.960Z,95870.34
2019-04-11T20:03:21.859Z,95874.47
2019-04-11T20:05:48.039Z,95875.60
2019-04-11T20:08:14.060Z,95873.12
2019-04-11T20:10:40.104Z,95873.28
2019-04-11T20:13:06.231Z,95879.66
2019-04-11T20:15:37.232Z,95869.34
2019-04-11T20:18:00.358Z,95874.91
2019-04-11T20:20:26.526Z,95873.28
2019-04-11T20:22:58.960Z,95878.52
2019-04-11T20:25:20.685Z,95882.76
2019-04-11T20:27:48.159Z,95876.23
2019-04-11T20:30:14.767Z,95879.84
2019-04-11T20:32:40.922Z,95876.40
2019-04-11T20:35:09.490Z,95882.45
2019-04-11T20:37:39.453Z,95877.03
2019-04-11T20:40:06.034Z,95879.20
2019-04-11T20:42:32.146Z,95879.83
2019-04-11T20:44:59.087Z,95879.48
2019-04-11T20:47:25.338Z,95878.14
2019-04-11T20:49:51.512Z,95881.11
2019-04-11T20:52:17.629Z,95875.19
2019-04-11T20:54:45.268Z,95876.63
2019-04-11T20:57:12.163Z,95883.67
2019-04-11T20:59:42.309Z,95884.67
2019-04-11T21:02:06.994Z,95879.00
2019-04-11T21:04:33.028Z,95886.20
2019-04-11T21:07:01.801Z,95888.34
2019-04-11T21:09:27.205Z,95885.04
2019-04-11T21:11:53.267Z,95884.67
2019-04-11T21:14:19.290Z,95887.46
2019-04-11T21:16:45.376Z,95882.05
2019-04-11T21:19:11.497Z,95884.46
2019-04-11T21:21:37.520Z,95881.05
2019-04-11T21:24:03.655Z,95873.88
2019-04-11T21:26:29.792Z,95879.14
2019-04-11T21:28:58.762Z,95876.05
2019-04-11T21:31:23.834Z,95877.04
2019-04-11T21:33:49.990Z,95874.90
2019-04-11T21:36:16.120Z,95876.23
2019-04-11T21:38:42.066Z,95871.48
2019-04-11T21:41:08.090Z,95872.77
2019-04-11T21:43:36.197Z,95872.08
2019-04-11T21:46:04.098Z,95879.42
2019-04-11T21:48:30.105Z,95872.88
2019-04-11T21:50:56.272Z,95878.46
2019-04-11T21:53:22.411Z,95875.05
2019-04-11T21:55:48.555Z,95882.25
2019-04-11T21:58:14.573Z,95884.98
2019-04-11T22:00:44.405Z,95888.56
2019-04-11T22:03:10.534Z,95884.50
2019-04-11T22:05:36.969Z,95890.91
2019-04-11T22:08:04.013Z,95887.34
2019-04-11T22:10:30.137Z,95896.05
2019-04-11T22:12:56.304Z,95892.14
2019-04-11T22:15:22.435Z,95893.79
2019-04-11T22:17:48.654Z,95892.30
2019-04-11T22:20:16.596Z,95895.86
2019-04-11T22:22:42.801Z,95897.98
2019-04-11T22:25:09.103Z,95892.63
2019-04-11T22:27:35.226Z,95887.07
2019-04-11T22:30:01.570Z,95894.09
2019-04-11T22:32:27.696Z,95896.23
2019-04-11T22:34:53.831Z,95890.66
2019-04-11T22:37:19.899Z,95891.97
2019-04-11T22:39:46.030Z,95894.61
2019-04-11T22:42:12.251Z,95909.67
2019-04-11T22:44:38.674Z,95899.19
2019-04-11T22:47:07.554Z,95902.14
2019-04-11T22:49:32.821Z,95899.34
2019-04-11T22:51:58.992Z,95897.88
2019-04-11T22:54:25.132Z,95896.09
2019-04-11T22:56:51.254Z,95895.73
2019-04-11T22:59:17.374Z,95901.47
2019-04-11T23:01:46.802Z,95895.23
2019-04-11T23:04:12.038Z,95902.42
2019-04-11T23:06:38.159Z,95898.37
2019-04-11T23:09:05.187Z,95892.98
2019-04-11T23:11:31.232Z,95897.70
2019-04-11T23:13:57.287Z,95894.61
2019-04-11T23:16:23.721Z,95890.33
2019-04-11T23:18:49.743Z,95895.72
2019-04-11T23:21:15.876Z,95892.64
2019-04-11T23:23:42.003Z,95891.67
2019-04-11T23:26:08.166Z,95889.38
2019-04-11T23:28:34.092Z,95892.63
2019-04-11T23:31:00.136Z,95890.66
2019-04-11T23:33:26.266Z,95882.78
2019-04-11T23:35:52.293Z,95885.25
2019-04-11T23:38:18.423Z,95888.39
2019-04-11T23:40:44.457Z,95877.59
2019-04-11T23:43:10.576Z,95879.22
2019-04-11T23:45:36.696Z,95883.47
2019-04-11T23:48:02.966Z,95874.33
2019-04-11T23:50:29.092Z,95883.15
2019-04-11T23:52:57.924Z,95879.55
2019-04-11T23:55:23.293Z,95876.91
2019-04-11T23:57:49.414Z,95877.25
